sensor_id;sensor_type;location;lat;lon;timestamp;temperature;humidity
2873;DHT22;1444;49.166;7.312;2022-10-26T00:00:51;15.00;99.90
2873;DHT22;1444;49.166;7.312;2022-10-26T00:03:18;15.00;99.90
2873;DHT22;1444;49.166;7.312;2022-10-26T00:05:46;15.00;99.90
2873;DHT22;1444;49.166;7.312;2022-10-26T00:08:13;15.00;99.90
2873;DHT22;1444;49.166;7.312;2022-10-26T00:10:40;15.00;99.90
2873;DHT22;1444;49.166;7.312;2022-10-26T00:13:09;15.00;99.90
2873;DHT22;1444;49.166;7.312;2022-10-26T00:15:39;15.10;99.90
2873;DHT22;1444;49.166;7.312;2022-10-26T00:18:07;15.10;99.90
2873;DHT22;1444;49.166;7.312;2022-10-26T00:20:34;15.10;99.90
2873;DHT22;1444;49.166;7.312;2022-10-26T00:23:02;15.20;99.90
2873;DHT22;1444;49.166;7.312;2022-10-26T00:25:28;15.20;99.90
2873;DHT22;1444;49.166;7.312;2022-10-26T00:27:55;15.20;99.90
2873;DHT22;1444;49.166;7.312;2022-10-26T00:30:22;15.20;99.90
2873;DHT22;1444;49.166;7.312;2022-10-26T00:35:16;15.20;99.90
2873;DHT22;1444;49.166;7.312;2022-10-26T00:37:42;15.20;99.90
2873;DHT22;1444;49.166;7.312;2022-10-26T00:40:11;15.20;99.90
2873;DHT22;1444;49.166;7.312;2022-10-26T00:47:44;15.20;99.90
2873;DHT22;1444;49.166;7.312;2022-10-26T00:50:17;15.20;99.90
2873;DHT22;1444;49.166;7.312;2022-10-26T00:52:45;15.20;99.90
2873;DHT22;1444;49.166;7.312;2022-10-26T00:55:14;15.10;99.90
2873;DHT22;1444;49.166;7.312;2022-10-26T01:00:13;15.10;99.90
2873;DHT22;1444;49.166;7.312;2022-10-26T01:02:40;15.10;99.90
2873;DHT22;1444;49.166;7.312;2022-10-26T01:05:08;15.00;99.90
2873;DHT22;1444;49.166;7.312;2022-10-26T01:10:03;15.10;99.90
2873;DHT22;1444;49.166;7.312;2022-10-26T01:12:31;15.20;99.90
2873;DHT22;1444;49.166;7.312;2022-10-26T01:14:58;15.20;99.90
2873;DHT22;1444;49.166;7.312;2022-10-26T01:17:33;15.20;99.90
2873;DHT22;1444;49.166;7.312;2022-10-26T01:23:26;15.10;99.90
2873;DHT22;1444;49.166;7.312;2022-10-26T01:26:13;15.00;99.90
2873;DHT22;1444;49.166;7.312;2022-10-26T01:29:04;15.10;99.90
2873;DHT22;1444;49.166;7.312;2022-10-26T01:34:11;15.10;99.90
2873;DHT22;1444;49.166;7.312;2022-10-26T01:36:43;15.10;99.90
2873;DHT22;1444;49.166;7.312;2022-10-26T01:39:15;15.10;99.90
2873;DHT22;1444;49.166;7.312;2022-10-26T01:41:46;15.10;99.90
2873;DHT22;1444;49.166;7.312;2022-10-26T01:44:16;15.20;99.90
2873;DHT22;1444;49.166;7.312;2022-10-26T01:46:48;15.00;99.90
2873;DHT22;1444;49.166;7.312;2022-10-26T01:49:19;15.00;99.90
2873;DHT22;1444;49.166;7.312;2022-10-26T01:51:48;14.80;99.90
2873;DHT22;1444;49.166;7.312;2022-10-26T01:54:15;14.80;99.90
2873;DHT22;1444;49.166;7.312;2022-10-26T01:56:44;14.80;99.90
2873;DHT22;1444;49.166;7.312;2022-10-26T01:59:21;14.90;99.90
2873;DHT22;1444;49.166;7.312;2022-10-26T02:02:10;14.90;99.90
2873;DHT22;1444;49.166;7.312;2022-10-26T02:04:50;15.00;99.90
2873;DHT22;1444;49.166;7.312;2022-10-26T02:07:21;15.00;99.90
2873;DHT22;1444;49.166;7.312;2022-10-26T02:09:58;15.00;99.90
2873;DHT22;1444;49.166;7.312;2022-10-26T02:12:32;15.00;99.90
2873;DHT22;1444;49.166;7.312;2022-10-26T02:15:05;15.10;99.90
2873;DHT22;1444;49.166;7.312;2022-10-26T02:17:37;15.00;99.90
2873;DHT22;1444;49.166;7.312;2022-10-26T02:20:12;15.00;99.90
2873;DHT22;1444;49.166;7.312;2022-10-26T02:22:46;15.00;99.90
2873;DHT22;1444;49.166;7.312;2022-10-26T02:25:17;15.00;99.90
2873;DHT22;1444;49.166;7.312;2022-10-26T02:27:49;15.00;99.90
2873;DHT22;1444;49.166;7.312;2022-10-26T02:30:18;15.00;99.90
2873;DHT22;1444;49.166;7.312;2022-10-26T02:32:49;14.90;99.90
2873;DHT22;1444;49.166;7.312;2022-10-26T02:35:19;14.80;99.90
2873;DHT22;1444;49.166;7.312;2022-10-26T02:37:49;14.70;99.90
2873;DHT22;1444;49.166;7.312;2022-10-26T02:40:20;14.80;99.90
2873;DHT22;1444;49.166;7.312;2022-10-26T02:42:49;14.80;99.90
2873;DHT22;1444;49.166;7.312;2022-10-26T02:45:20;14.90;99.90
2873;DHT22;1444;49.166;7.312;2022-10-26T02:47:50;14.90;99.90
2873;DHT22;1444;49.166;7.312;2022-10-26T02:50:18;14.90;99.90
2873;DHT22;1444;49.166;7.312;2022-10-26T02:52:51;14.90;99.90
2873;DHT22;1444;49.166;7.312;2022-10-26T02:55:22;14.90;99.90
2873;DHT22;1444;49.166;7.312;2022-10-26T02:57:54;15.00;99.90
2873;DHT22;1444;49.166;7.312;2022-10-26T03:00:23;15.00;99.90
2873;DHT22;1444;49.166;7.312;2022-10-26T03:02:53;15.00;99.90
2873;DHT22;1444;49.166;7.312;2022-10-26T03:05:24;14.90;99.90
2873;DHT22;1444;49.166;7.312;2022-10-26T03:07:51;14.90;99.90
2873;DHT22;1444;49.166;7.312;2022-10-26T03:10:19;14.90;99.90
2873;DHT22;1444;49.166;7.312;2022-10-26T03:12:45;14.80;99.90
2873;DHT22;1444;49.166;7.312;2022-10-26T03:15:12;14.80;99.90
2873;DHT22;1444;49.166;7.312;2022-10-26T03:17:39;14.90;99.90
2873;DHT22;1444;49.166;7.312;2022-10-26T03:20:09;14.90;99.90
2873;DHT22;1444;49.166;7.312;2022-10-26T03:22:36;14.80;99.90
2873;DHT22;1444;49.166;7.312;2022-10-26T03:25:03;14.60;99.90
2873;DHT22;1444;49.166;7.312;2022-10-26T03:27:30;14.50;99.90
2873;DHT22;1444;49.166;7.312;2022-10-26T03:29:57;14.60;99.90
2873;DHT22;1444;49.166;7.312;2022-10-26T03:32:24;14.60;99.90
2873;DHT22;1444;49.166;7.312;2022-10-26T03:34:50;14.70;99.90
2873;DHT22;1444;49.166;7.312;2022-10-26T03:37:18;14.70;99.90
2873;DHT22;1444;49.166;7.312;2022-10-26T03:39:45;14.80;99.90
2873;DHT22;1444;49.166;7.312;2022-10-26T03:42:12;14.70;99.90
2873;DHT22;1444;49.166;7.312;2022-10-26T03:44:38;14.70;99.90
2873;DHT22;1444;49.166;7.312;2022-10-26T03:47:05;14.80;99.90
2873;DHT22;1444;49.166;7.312;2022-10-26T03:49:32;14.80;99.90
2873;DHT22;1444;49.166;7.312;2022-10-26T03:51:59;14.70;99.90
2873;DHT22;1444;49.166;7.312;2022-10-26T03:54:27;14.70;99.90
2873;DHT22;1444;49.166;7.312;2022-10-26T03:56:53;14.80;99.90
2873;DHT22;1444;49.166;7.312;2022-10-26T03:59:20;14.80;99.90
2873;DHT22;1444;49.166;7.312;2022-10-26T04:01:47;14.80;99.90
2873;DHT22;1444;49.166;7.312;2022-10-26T04:04:14;14.80;99.90
2873;DHT22;1444;49.166;7.312;2022-10-26T04:09:07;14.70;99.90
2873;DHT22;1444;49.166;7.312;2022-10-26T04:11:35;14.60;99.90
2873;DHT22;1444;49.166;7.312;2022-10-26T04:14:02;14.70;99.90
2873;DHT22;1444;49.166;7.312;2022-10-26T04:16:29;14.70;99.90
2873;DHT22;1444;49.166;7.312;2022-10-26T04:18:55;14.70;99.90
2873;DHT22;1444;49.166;7.312;2022-10-26T04:23:49;14.50;99.90
2873;DHT22;1444;49.166;7.312;2022-10-26T04:26:16;14.50;99.90
2873;DHT22;1444;49.166;7.312;2022-10-26T04:28:44;14.40;99.90
2873;DHT22;1444;49.166;7.312;2022-10-26T04:31:11;14.30;99.90
2873;DHT22;1444;49.166;7.312;2022-10-26T04:33:37;14.30;99.90
2873;DHT22;1444;49.166;7.312;2022-10-26T04:36:05;14.40;99.90
2873;DHT22;1444;49.166;7.312;2022-10-26T04:38:31;14.50;99.90
2873;DHT22;1444;49.166;7.312;2022-10-26T04:40:58;14.50;99.90
2873;DHT22;1444;49.166;7.312;2022-10-26T04:43:25;14.60;99.90
2873;DHT22;1444;49.166;7.312;2022-10-26T04:45:55;14.50;99.90
2873;DHT22;1444;49.166;7.312;2022-10-26T04:48:23;14.60;99.90
2873;DHT22;1444;49.166;7.312;2022-10-26T04:50:50;14.70;99.90
2873;DHT22;1444;49.166;7.312;2022-10-26T04:55:43;14.80;99.90
2873;DHT22;1444;49.166;7.312;2022-10-26T04:58:10;14.80;99.90
2873;DHT22;1444;49.166;7.312;2022-10-26T05:00:37;14.90;99.90
2873;DHT22;1444;49.166;7.312;2022-10-26T05:03:06;14.90;99.90
2873;DHT22;1444;49.166;7.312;2022-10-26T05:05:34;14.90;99.90
2873;DHT22;1444;49.166;7.312;2022-10-26T05:08:02;14.80;99.90
2873;DHT22;1444;49.166;7.312;2022-10-26T05:10:29;14.80;99.90
2873;DHT22;1444;49.166;7.312;2022-10-26T05:12:57;14.80;99.90
2873;DHT22;1444;49.166;7.312;2022-10-26T05:15:25;14.80;99.90
2873;DHT22;1444;49.166;7.312;2022-10-26T05:17:56;14.90;99.90
2873;DHT22;1444;49.166;7.312;2022-10-26T05:20:25;15.00;99.90
2873;DHT22;1444;49.166;7.312;2022-10-26T05:22:54;15.10;99.90
2873;DHT22;1444;49.166;7.312;2022-10-26T05:25:21;15.20;99.90
2873;DHT22;1444;49.166;7.312;2022-10-26T05:27:48;15.20;99.90
2873;DHT22;1444;49.166;7.312;2022-10-26T05:30:14;15.20;99.90
2873;DHT22;1444;49.166;7.312;2022-10-26T05:32:41;15.30;99.90
2873;DHT22;1444;49.166;7.312;2022-10-26T05:37:36;15.30;99.90
2873;DHT22;1444;49.166;7.312;2022-10-26T05:40:04;15.30;99.90
2873;DHT22;1444;49.166;7.312;2022-10-26T05:42:31;15.30;99.90
2873;DHT22;1444;49.166;7.312;2022-10-26T05:44:58;15.30;99.90
2873;DHT22;1444;49.166;7.312;2022-10-26T05:47:24;15.50;99.90
2873;DHT22;1444;49.166;7.312;2022-10-26T05:49:51;15.60;99.90
2873;DHT22;1444;49.166;7.312;2022-10-26T05:52:18;15.60;99.90
2873;DHT22;1444;49.166;7.312;2022-10-26T05:54:46;15.50;99.90
2873;DHT22;1444;49.166;7.312;2022-10-26T05:57:13;15.60;99.90
2873;DHT22;1444;49.166;7.312;2022-10-26T06:04:41;15.60;99.90
2873;DHT22;1444;49.166;7.312;2022-10-26T06:09:41;15.70;99.90
2873;DHT22;1444;49.166;7.312;2022-10-26T06:17:15;15.70;99.90
2873;DHT22;1444;49.166;7.312;2022-10-26T06:19:54;15.70;99.90
2873;DHT22;1444;49.166;7.312;2022-10-26T06:22:31;15.60;99.90
2873;DHT22;1444;49.166;7.312;2022-10-26T06:25:11;15.60;99.90
2873;DHT22;1444;49.166;7.312;2022-10-26T06:27:47;15.60;99.90
2873;DHT22;1444;49.166;7.312;2022-10-26T06:30:17;15.60;99.90
2873;DHT22;1444;49.166;7.312;2022-10-26T06:32:48;15.50;99.90
2873;DHT22;1444;49.166;7.312;2022-10-26T06:35:24;15.60;99.90
2873;DHT22;1444;49.166;7.312;2022-10-26T06:37:54;15.70;99.90
2873;DHT22;1444;49.166;7.312;2022-10-26T06:40:23;15.70;99.90
2873;DHT22;1444;49.166;7.312;2022-10-26T06:42:52;15.70;99.90
2873;DHT22;1444;49.166;7.312;2022-10-26T06:45:19;15.80;99.90
2873;DHT22;1444;49.166;7.312;2022-10-26T06:47:51;15.60;99.90
2873;DHT22;1444;49.166;7.312;2022-10-26T06:50:28;15.50;99.90
2873;DHT22;1444;49.166;7.312;2022-10-26T06:53:09;15.30;99.90
2873;DHT22;1444;49.166;7.312;2022-10-26T06:55:43;15.30;99.90
2873;DHT22;1444;49.166;7.312;2022-10-26T06:58:14;15.30;99.90
2873;DHT22;1444;49.166;7.312;2022-10-26T07:00:43;15.30;99.90
2873;DHT22;1444;49.166;7.312;2022-10-26T07:05:37;15.50;99.90
2873;DHT22;1444;49.166;7.312;2022-10-26T07:08:04;14.40;99.90
2873;DHT22;1444;49.166;7.312;2022-10-26T07:10:31;15.80;99.90
2873;DHT22;1444;49.166;7.312;2022-10-26T07:15:28;16.10;99.90
2873;DHT22;1444;49.166;7.312;2022-10-26T07:17:55;16.00;99.90
2873;DHT22;1444;49.166;7.312;2022-10-26T07:20:21;16.00;99.90
2873;DHT22;1444;49.166;7.312;2022-10-26T07:22:52;15.90;99.90
2873;DHT22;1444;49.166;7.312;2022-10-26T07:25:19;15.80;99.90
2873;DHT22;1444;49.166;7.312;2022-10-26T07:30:13;15.70;99.90
2873;DHT22;1444;49.166;7.312;2022-10-26T07:32:42;15.70;99.90
2873;DHT22;1444;49.166;7.312;2022-10-26T07:35:09;15.60;99.90
2873;DHT22;1444;49.166;7.312;2022-10-26T07:40:04;15.80;99.90
2873;DHT22;1444;49.166;7.312;2022-10-26T07:42:31;15.90;99.90
2873;DHT22;1444;49.166;7.312;2022-10-26T07:44:57;15.90;99.90
2873;DHT22;1444;49.166;7.312;2022-10-26T07:47:24;16.10;99.90
2873;DHT22;1444;49.166;7.312;2022-10-26T07:49:52;16.10;99.90
2873;DHT22;1444;49.166;7.312;2022-10-26T07:52:19;16.20;99.90
2873;DHT22;1444;49.166;7.312;2022-10-26T07:54:46;16.30;99.90
2873;DHT22;1444;49.166;7.312;2022-10-26T07:57:15;16.50;99.90
2873;DHT22;1444;49.166;7.312;2022-10-26T07:59:42;16.60;99.90
2873;DHT22;1444;49.166;7.312;2022-10-26T08:02:09;16.80;99.90
2873;DHT22;1444;49.166;7.312;2022-10-26T08:04:36;17.00;99.90
2873;DHT22;1444;49.166;7.312;2022-10-26T08:09:31;17.80;99.90
2873;DHT22;1444;49.166;7.312;2022-10-26T08:14:25;18.20;99.90
2873;DHT22;1444;49.166;7.312;2022-10-26T08:19:18;18.20;99.90
2873;DHT22;1444;49.166;7.312;2022-10-26T08:21:45;18.10;99.90
2873;DHT22;1444;49.166;7.312;2022-10-26T08:24:13;18.20;99.90
2873;DHT22;1444;49.166;7.312;2022-10-26T08:29:07;18.20;99.90
2873;DHT22;1444;49.166;7.312;2022-10-26T08:34:01;17.90;99.90
2873;DHT22;1444;49.166;7.312;2022-10-26T08:36:28;18.00;99.90
2873;DHT22;1444;49.166;7.312;2022-10-26T08:38:55;17.90;99.90
2873;DHT22;1444;49.166;7.312;2022-10-26T08:41:32;17.90;99.90
2873;DHT22;1444;49.166;7.312;2022-10-26T08:44:04;16.40;99.90
2873;DHT22;1444;49.166;7.312;2022-10-26T08:46:36;18.00;99.90
2873;DHT22;1444;49.166;7.312;2022-10-26T08:49:14;17.90;99.90
2873;DHT22;1444;49.166;7.312;2022-10-26T08:54:14;18.00;99.90
2873;DHT22;1444;49.166;7.312;2022-10-26T08:56:45;18.10;99.90
2873;DHT22;1444;49.166;7.312;2022-10-26T09:01:45;18.20;99.90
2873;DHT22;1444;49.166;7.312;2022-10-26T09:04:11;18.30;99.90
2873;DHT22;1444;49.166;7.312;2022-10-26T09:09:16;18.40;99.90
2873;DHT22;1444;49.166;7.312;2022-10-26T09:11:53;18.40;99.90
2873;DHT22;1444;49.166;7.312;2022-10-26T09:14:27;18.50;99.90
2873;DHT22;1444;49.166;7.312;2022-10-26T09:17:02;18.60;99.90
2873;DHT22;1444;49.166;7.312;2022-10-26T09:19:50;18.60;99.90
2873;DHT22;1444;49.166;7.312;2022-10-26T09:22:24;18.80;99.90
2873;DHT22;1444;49.166;7.312;2022-10-26T09:29:52;18.80;99.90
2873;DHT22;1444;49.166;7.312;2022-10-26T09:32:22;18.80;99.90
2873;DHT22;1444;49.166;7.312;2022-10-26T09:37:23;18.60;99.90
2873;DHT22;1444;49.166;7.312;2022-10-26T09:44:56;18.50;99.90
2873;DHT22;1444;49.166;7.312;2022-10-26T09:52:32;18.60;99.90
2873;DHT22;1444;49.166;7.312;2022-10-26T09:54:59;18.50;99.90
2873;DHT22;1444;49.166;7.312;2022-10-26T09:57:27;18.50;99.90
2873;DHT22;1444;49.166;7.312;2022-10-26T09:59:55;18.60;99.90
2873;DHT22;1444;49.166;7.312;2022-10-26T10:02:36;18.60;99.90
2873;DHT22;1444;49.166;7.312;2022-10-26T10:05:20;18.70;99.90
2873;DHT22;1444;49.166;7.312;2022-10-26T10:07:47;18.80;99.90
2873;DHT22;1444;49.166;7.312;2022-10-26T10:12:44;18.90;99.90
2873;DHT22;1444;49.166;7.312;2022-10-26T10:15:17;19.00;99.90
2873;DHT22;1444;49.166;7.312;2022-10-26T10:20:18;18.90;99.90
2873;DHT22;1444;49.166;7.312;2022-10-26T10:22:53;18.90;99.90
2873;DHT22;1444;49.166;7.312;2022-10-26T10:25:32;19.00;99.90
2873;DHT22;1444;49.166;7.312;2022-10-26T10:28:01;19.00;99.90
2873;DHT22;1444;49.166;7.312;2022-10-26T10:33:04;19.20;99.90
2873;DHT22;1444;49.166;7.312;2022-10-26T10:40:26;19.40;99.90
2873;DHT22;1444;49.166;7.312;2022-10-26T10:43:04;19.60;99.90
2873;DHT22;1444;49.166;7.312;2022-10-26T10:53:11;20.00;99.90
2873;DHT22;1444;49.166;7.312;2022-10-26T10:55:40;20.20;99.90
2873;DHT22;1444;49.166;7.312;2022-10-26T10:58:14;22.60;99.90
2873;DHT22;1444;49.166;7.312;2022-10-26T11:00:47;20.30;99.90
2873;DHT22;1444;49.166;7.312;2022-10-26T11:03:33;20.40;99.90
2873;DHT22;1444;49.166;7.312;2022-10-26T11:06:10;20.60;99.90
2873;DHT22;1444;49.166;7.312;2022-10-26T11:08:43;20.70;99.90
2873;DHT22;1444;49.166;7.312;2022-10-26T11:13:48;20.70;99.90
2873;DHT22;1444;49.166;7.312;2022-10-26T11:16:19;20.70;99.90
2873;DHT22;1444;49.166;7.312;2022-10-26T11:18:50;20.80;99.90
2873;DHT22;1444;49.166;7.312;2022-10-26T11:21:24;21.10;99.90
2873;DHT22;1444;49.166;7.312;2022-10-26T11:23:56;21.20;99.90
2873;DHT22;1444;49.166;7.312;2022-10-26T11:26:30;21.40;99.90
2873;DHT22;1444;49.166;7.312;2022-10-26T11:29:03;21.60;99.90
2873;DHT22;1444;49.166;7.312;2022-10-26T11:31:35;21.70;99.90
2873;DHT22;1444;49.166;7.312;2022-10-26T11:39:13;21.50;99.90
2873;DHT22;1444;49.166;7.312;2022-10-26T11:54:21;22.10;99.90
2873;DHT22;1444;49.166;7.312;2022-10-26T11:56:52;22.00;99.90
2873;DHT22;1444;49.166;7.312;2022-10-26T11:59:23;22.00;99.90
2873;DHT22;1444;49.166;7.312;2022-10-26T12:04:20;22.20;99.90
2873;DHT22;1444;49.166;7.312;2022-10-26T12:09:19;22.40;99.90
2873;DHT22;1444;49.166;7.312;2022-10-26T12:11:50;22.60;99.90
2873;DHT22;1444;49.166;7.312;2022-10-26T12:16:56;22.90;99.50
2873;DHT22;1444;49.166;7.312;2022-10-26T12:19:28;24.80;99.90
2873;DHT22;1444;49.166;7.312;2022-10-26T12:21:58;23.00;99.40
2873;DHT22;1444;49.166;7.312;2022-10-26T12:24:28;23.00;99.70
2873;DHT22;1444;49.166;7.312;2022-10-26T12:26:56;22.90;99.00
2873;DHT22;1444;49.166;7.312;2022-10-26T12:29:38;22.80;99.10
2873;DHT22;1444;49.166;7.312;2022-10-26T12:35:02;23.10;99.00
2873;DHT22;1444;49.166;7.312;2022-10-26T12:37:33;23.20;99.00
2873;DHT22;1444;49.166;7.312;2022-10-26T12:40:38;23.30;98.60
2873;DHT22;1444;49.166;7.312;2022-10-26T12:43:36;23.20;98.80
2873;DHT22;1444;49.166;7.312;2022-10-26T12:52:30;23.10;99.00
2873;DHT22;1444;49.166;7.312;2022-10-26T13:04:07;23.00;98.30
2873;DHT22;1444;49.166;7.312;2022-10-26T13:06:51;23.10;98.90
2873;DHT22;1444;49.166;7.312;2022-10-26T13:09:24;23.00;98.80
2873;DHT22;1444;49.166;7.312;2022-10-26T13:11:54;22.80;98.40
2873;DHT22;1444;49.166;7.312;2022-10-26T13:14:24;22.70;98.30
2873;DHT22;1444;49.166;7.312;2022-10-26T13:16:51;22.90;99.20
2873;DHT22;1444;49.166;7.312;2022-10-26T13:19:26;22.60;98.70
2873;DHT22;1444;49.166;7.312;2022-10-26T13:32:21;23.10;98.60
2873;DHT22;1444;49.166;7.312;2022-10-26T13:34:48;23.10;98.70
2873;DHT22;1444;49.166;7.312;2022-10-26T13:37:20;23.20;98.90
2873;DHT22;1444;49.166;7.312;2022-10-26T13:39:49;23.20;98.40
2873;DHT22;1444;49.166;7.312;2022-10-26T13:42:24;23.00;98.70
2873;DHT22;1444;49.166;7.312;2022-10-26T13:47:24;22.90;98.70
2873;DHT22;1444;49.166;7.312;2022-10-26T13:49:55;22.70;98.50
2873;DHT22;1444;49.166;7.312;2022-10-26T13:52:29;22.60;98.90
2873;DHT22;1444;49.166;7.312;2022-10-26T13:55:02;22.60;98.70
2873;DHT22;1444;49.166;7.312;2022-10-26T13:57:34;22.60;99.20
2873;DHT22;1444;49.166;7.312;2022-10-26T14:00:07;22.70;99.00
2873;DHT22;1444;49.166;7.312;2022-10-26T14:05:11;22.80;98.80
2873;DHT22;1444;49.166;7.312;2022-10-26T14:07:42;22.70;98.70
2873;DHT22;1444;49.166;7.312;2022-10-26T14:10:26;22.40;98.70
2873;DHT22;1444;49.166;7.312;2022-10-26T14:15:26;22.50;99.40
2873;DHT22;1444;49.166;7.312;2022-10-26T14:17:55;22.50;99.20
2873;DHT22;1444;49.166;7.312;2022-10-26T14:20:23;22.60;99.10
2873;DHT22;1444;49.166;7.312;2022-10-26T14:25:22;22.70;99.20
2873;DHT22;1444;49.166;7.312;2022-10-26T14:27:49;22.90;99.00
2873;DHT22;1444;49.166;7.312;2022-10-26T14:32:48;22.80;99.00
2873;DHT22;1444;49.166;7.312;2022-10-26T14:35:16;22.60;98.70
2873;DHT22;1444;49.166;7.312;2022-10-26T14:37:45;22.50;99.10
2873;DHT22;1444;49.166;7.312;2022-10-26T14:40:16;22.40;98.50
2873;DHT22;1444;49.166;7.312;2022-10-26T14:45:24;22.50;99.20
2873;DHT22;1444;49.166;7.312;2022-10-26T14:47:55;21.20;99.00
2873;DHT22;1444;49.166;7.312;2022-10-26T14:50:23;22.40;99.20
2873;DHT22;1444;49.166;7.312;2022-10-26T14:55:21;22.60;99.30
2873;DHT22;1444;49.166;7.312;2022-10-26T14:57:52;22.50;99.60
2873;DHT22;1444;49.166;7.312;2022-10-26T15:00:33;22.50;98.90
2873;DHT22;1444;49.166;7.312;2022-10-26T15:05:29;22.40;98.90
2873;DHT22;1444;49.166;7.312;2022-10-26T15:07:58;22.30;99.00
2873;DHT22;1444;49.166;7.312;2022-10-26T15:15:52;22.50;99.50
2873;DHT22;1444;49.166;7.312;2022-10-26T15:20:51;22.50;99.20
2873;DHT22;1444;49.166;7.312;2022-10-26T15:28:22;22.20;99.50
2873;DHT22;1444;49.166;7.312;2022-10-26T15:31:01;22.10;99.90
2873;DHT22;1444;49.166;7.312;2022-10-26T15:33:28;22.00;99.50
2873;DHT22;1444;49.166;7.312;2022-10-26T15:36:14;21.90;99.70
2873;DHT22;1444;49.166;7.312;2022-10-26T15:43:42;21.60;99.70
2873;DHT22;1444;49.166;7.312;2022-10-26T15:46:09;21.50;99.90
2873;DHT22;1444;49.166;7.312;2022-10-26T15:48:36;21.40;99.90
2873;DHT22;1444;49.166;7.312;2022-10-26T15:51:05;21.50;99.90
2873;DHT22;1444;49.166;7.312;2022-10-26T15:53:32;21.60;99.90
2873;DHT22;1444;49.166;7.312;2022-10-26T15:55:59;21.60;99.90
2873;DHT22;1444;49.166;7.312;2022-10-26T16:00:54;21.60;99.90
2873;DHT22;1444;49.166;7.312;2022-10-26T16:03:23;21.60;99.90
2873;DHT22;1444;49.166;7.312;2022-10-26T16:05:54;21.30;99.90
2873;DHT22;1444;49.166;7.312;2022-10-26T16:10:49;21.00;99.90
2873;DHT22;1444;49.166;7.312;2022-10-26T16:13:16;20.90;99.90
2873;DHT22;1444;49.166;7.312;2022-10-26T16:18:13;20.70;99.90
2873;DHT22;1444;49.166;7.312;2022-10-26T16:20:40;20.60;99.90
2873;DHT22;1444;49.166;7.312;2022-10-26T16:23:07;20.50;99.90
2873;DHT22;1444;49.166;7.312;2022-10-26T16:25:38;20.40;99.90
2873;DHT22;1444;49.166;7.312;2022-10-26T16:28:05;20.20;99.90
2873;DHT22;1444;49.166;7.312;2022-10-26T16:30:32;20.00;99.90
2873;DHT22;1444;49.166;7.312;2022-10-26T16:33:01;19.80;99.90
2873;DHT22;1444;49.166;7.312;2022-10-26T16:35:29;19.60;99.90
2873;DHT22;1444;49.166;7.312;2022-10-26T16:37:56;19.70;99.90
2873;DHT22;1444;49.166;7.312;2022-10-26T16:40:23;19.80;99.90
2873;DHT22;1444;49.166;7.312;2022-10-26T16:42:49;19.80;99.90
2873;DHT22;1444;49.166;7.312;2022-10-26T16:45:16;19.70;99.90
2873;DHT22;1444;49.166;7.312;2022-10-26T16:47:43;19.70;99.90
2873;DHT22;1444;49.166;7.312;2022-10-26T16:50:11;19.70;99.90
2873;DHT22;1444;49.166;7.312;2022-10-26T16:52:40;19.60;99.90
2873;DHT22;1444;49.166;7.312;2022-10-26T16:55:08;19.60;99.90
2873;DHT22;1444;49.166;7.312;2022-10-26T16:57:35;19.50;99.90
2873;DHT22;1444;49.166;7.312;2022-10-26T17:00:04;19.30;99.90
2873;DHT22;1444;49.166;7.312;2022-10-26T17:02:31;19.30;99.90
2873;DHT22;1444;49.166;7.312;2022-10-26T17:04:58;19.10;99.90
2873;DHT22;1444;49.166;7.312;2022-10-26T17:07:24;19.00;99.90
2873;DHT22;1444;49.166;7.312;2022-10-26T17:09:52;18.90;99.90
2873;DHT22;1444;49.166;7.312;2022-10-26T17:12:19;18.90;99.90
2873;DHT22;1444;49.166;7.312;2022-10-26T17:14:46;18.70;99.90
2873;DHT22;1444;49.166;7.312;2022-10-26T17:17:12;18.50;99.90
2873;DHT22;1444;49.166;7.312;2022-10-26T17:19:39;18.40;99.90
2873;DHT22;1444;49.166;7.312;2022-10-26T17:22:06;18.30;99.90
2873;DHT22;1444;49.166;7.312;2022-10-26T17:24:33;18.20;99.90
2873;DHT22;1444;49.166;7.312;2022-10-26T17:27:02;18.30;99.90
2873;DHT22;1444;49.166;7.312;2022-10-26T17:29:28;18.20;99.90
2873;DHT22;1444;49.166;7.312;2022-10-26T17:31:55;18.20;99.90
2873;DHT22;1444;49.166;7.312;2022-10-26T17:34:22;18.20;99.90
2873;DHT22;1444;49.166;7.312;2022-10-26T17:36:48;18.10;99.90
2873;DHT22;1444;49.166;7.312;2022-10-26T17:39:15;18.10;99.90
2873;DHT22;1444;49.166;7.312;2022-10-26T17:41:43;18.00;99.90
2873;DHT22;1444;49.166;7.312;2022-10-26T17:44:11;17.90;99.90
2873;DHT22;1444;49.166;7.312;2022-10-26T17:46:38;17.90;99.90
2873;DHT22;1444;49.166;7.312;2022-10-26T17:49:05;17.80;99.90
2873;DHT22;1444;49.166;7.312;2022-10-26T17:51:32;17.70;99.90
2873;DHT22;1444;49.166;7.312;2022-10-26T17:53:58;17.60;99.90
2873;DHT22;1444;49.166;7.312;2022-10-26T17:56:26;17.60;99.90
2873;DHT22;1444;49.166;7.312;2022-10-26T17:58:54;17.50;99.90
2873;DHT22;1444;49.166;7.312;2022-10-26T18:01:23;17.50;99.90
2873;DHT22;1444;49.166;7.312;2022-10-26T18:03:50;17.40;99.90
2873;DHT22;1444;49.166;7.312;2022-10-26T18:06:18;17.30;99.90
2873;DHT22;1444;49.166;7.312;2022-10-26T18:08:45;17.30;99.90
2873;DHT22;1444;49.166;7.312;2022-10-26T18:11:15;17.20;99.90
2873;DHT22;1444;49.166;7.312;2022-10-26T18:13:43;17.10;99.90
2873;DHT22;1444;49.166;7.312;2022-10-26T18:16:12;17.10;99.90
2873;DHT22;1444;49.166;7.312;2022-10-26T18:18:41;17.00;99.90
2873;DHT22;1444;49.166;7.312;2022-10-26T18:21:11;16.90;99.90
2873;DHT22;1444;49.166;7.312;2022-10-26T18:23:38;16.70;99.90
2873;DHT22;1444;49.166;7.312;2022-10-26T18:28:33;16.20;99.90
2873;DHT22;1444;49.166;7.312;2022-10-26T18:31:01;16.10;99.90
2873;DHT22;1444;49.166;7.312;2022-10-26T18:33:28;15.90;99.90
2873;DHT22;1444;49.166;7.312;2022-10-26T18:36:01;15.80;99.90
2873;DHT22;1444;49.166;7.312;2022-10-26T18:38:29;15.70;99.90
2873;DHT22;1444;49.166;7.312;2022-10-26T18:40:56;15.70;99.90
2873;DHT22;1444;49.166;7.312;2022-10-26T18:43:22;15.50;99.90
2873;DHT22;1444;49.166;7.312;2022-10-26T18:45:49;15.40;99.90
2873;DHT22;1444;49.166;7.312;2022-10-26T18:48:17;15.40;99.90
2873;DHT22;1444;49.166;7.312;2022-10-26T18:53:12;15.40;99.90
2873;DHT22;1444;49.166;7.312;2022-10-26T18:55:41;15.50;99.90
2873;DHT22;1444;49.166;7.312;2022-10-26T18:58:08;15.50;99.90
2873;DHT22;1444;49.166;7.312;2022-10-26T19:00:36;15.50;99.90
2873;DHT22;1444;49.166;7.312;2022-10-26T19:03:03;15.50;99.90
2873;DHT22;1444;49.166;7.312;2022-10-26T19:05:31;15.40;99.90
2873;DHT22;1444;49.166;7.312;2022-10-26T19:07:59;15.30;99.90
2873;DHT22;1444;49.166;7.312;2022-10-26T19:10:27;15.20;99.90
2873;DHT22;1444;49.166;7.312;2022-10-26T19:12:55;15.00;99.90
2873;DHT22;1444;49.166;7.312;2022-10-26T19:15:22;14.90;99.90
2873;DHT22;1444;49.166;7.312;2022-10-26T19:17:49;14.70;99.90
2873;DHT22;1444;49.166;7.312;2022-10-26T19:20:16;14.70;99.90
2873;DHT22;1444;49.166;7.312;2022-10-26T19:27:38;14.70;99.90
2873;DHT22;1444;49.166;7.312;2022-10-26T19:32:33;14.60;99.90
2873;DHT22;1444;49.166;7.312;2022-10-26T19:39:54;14.60;99.90
2873;DHT22;1444;49.166;7.312;2022-10-26T19:42:20;14.60;99.90
2873;DHT22;1444;49.166;7.312;2022-10-26T19:44:48;14.60;99.90
2873;DHT22;1444;49.166;7.312;2022-10-26T19:47:15;14.60;99.90
2873;DHT22;1444;49.166;7.312;2022-10-26T19:54:36;14.50;99.90
2873;DHT22;1444;49.166;7.312;2022-10-26T19:57:03;14.40;99.90
2873;DHT22;1444;49.166;7.312;2022-10-26T20:01:58;14.20;99.90
2873;DHT22;1444;49.166;7.312;2022-10-26T20:04:25;14.20;99.90
2873;DHT22;1444;49.166;7.312;2022-10-26T20:06:52;16.60;99.90
2873;DHT22;1444;49.166;7.312;2022-10-26T20:09:19;14.20;99.90
2873;DHT22;1444;49.166;7.312;2022-10-26T20:11:45;14.20;99.90